createdAt,value
2022-08-18T00:00:19.951Z,100256.56
2022-08-18T00:03:15.830Z,100253.52
2022-08-18T00:06:03.616Z,100251.23
2022-08-18T00:08:38.516Z,100249.17
2022-08-18T00:11:10.963Z,100252.27
2022-08-18T00:13:43.248Z,100255.24
2022-08-18T00:16:15.469Z,100254.63
2022-08-18T00:18:47.508Z,100254.56
2022-08-18T00:21:20.425Z,100250.81
2022-08-18T00:23:52.893Z,100251.33
2022-08-18T00:26:25.254Z,100258.84
2022-08-18T00:28:57.508Z,100258.38
2022-08-18T00:31:30.165Z,100256.24
2022-08-18T00:34:02.257Z,100254.48
2022-08-18T00:36:35.122Z,100256.27
2022-08-18T00:39:07.341Z,100253.66
2022-08-18T00:41:39.902Z,100242.83
2022-08-18T00:44:12.478Z,100250.77
2022-08-18T00:46:44.735Z,100261.13
2022-08-18T00:49:18.486Z,100259.98
2022-08-18T00:51:53.693Z,100258.37
2022-08-18T00:54:28.676Z,100246.98
2022-08-18T00:57:03.576Z,100258.51
2022-08-18T00:59:42.659Z,100259.77
2022-08-18T01:02:22.647Z,100261.36
2022-08-18T01:05:01.421Z,100247.73
2022-08-18T01:07:37.701Z,100261.75
2022-08-18T01:10:11.206Z,100261.12
2022-08-18T01:12:45.200Z,100255.59
2022-08-18T01:15:28.289Z,100252.07
2022-08-18T01:18:19.031Z,100235.51
2022-08-18T01:21:18.084Z,100248.27
2022-08-18T01:23:52.075Z,100251.97
2022-08-18T01:26:28.215Z,100252.20
2022-08-18T01:29:10.636Z,100249.01
2022-08-18T01:31:53.339Z,100247.73
2022-08-18T01:34:28.732Z,100229.34
2022-08-18T01:37:01.255Z,100244.45
2022-08-18T01:41:22.676Z,100244.80
2022-08-18T01:42:26.091Z,100244.55
2022-08-18T01:44:58.384Z,100239.48
2022-08-18T01:47:31.382Z,100233.92
2022-08-18T01:50:20.655Z,100234.42
2022-08-18T01:52:53.826Z,100230.20
2022-08-18T01:55:28.402Z,100232.80
2022-08-18T01:58:01.542Z,100232.29
2022-08-18T02:00:33.772Z,100233.13
2022-08-18T02:03:10.694Z,100237.64
2022-08-18T02:05:49.254Z,100239.75
2022-08-18T02:08:23.358Z,100241.23
2022-08-18T02:11:00.146Z,100240.11
2022-08-18T02:13:33.005Z,100238.53
2022-08-18T02:16:05.834Z,100244.28
2022-08-18T02:18:47.515Z,100240.38
2022-08-18T02:21:23.306Z,100241.02
2022-08-18T02:23:54.170Z,100237.18
2022-08-18T02:26:26.376Z,100236.12
2022-08-18T02:28:58.500Z,100236.46
2022-08-18T02:31:30.564Z,100232.42
2022-08-18T02:34:02.835Z,100230.64
2022-08-18T02:36:35.033Z,100229.13
2022-08-18T02:39:07.289Z,100235.06
2022-08-18T02:41:39.287Z,100231.27
2022-08-18T02:44:12.561Z,100230.51
2022-08-18T02:46:44.592Z,100233.56
2022-08-18T02:49:16.844Z,100239.05
2022-08-18T02:51:49.746Z,100240.23
2022-08-18T02:54:23.542Z,100242.00
2022-08-18T02:56:57.287Z,100238.15
2022-08-18T02:59:32.058Z,100240.70
2022-08-18T03:02:07.544Z,100242.17
2022-08-18T03:04:39.572Z,100245.54
2022-08-18T03:07:11.999Z,100248.58
2022-08-18T03:09:44.417Z,100248.60
2022-08-18T03:12:16.753Z,100245.38
2022-08-18T03:14:49.527Z,100243.94
2022-08-18T03:17:21.626Z,100245.09
2022-08-18T03:19:53.944Z,100248.29
2022-08-18T03:22:29.567Z,100246.23
2022-08-18T03:25:03.199Z,100244.66
2022-08-18T03:27:35.242Z,100247.05
2022-08-18T03:30:11.337Z,100248.39
2022-08-18T03:32:45.714Z,100249.69
2022-08-18T03:35:18.983Z,100245.34
2022-08-18T03:37:51.357Z,100236.67
2022-08-18T03:40:23.907Z,100254.45
2022-08-18T03:42:56.540Z,100255.38
2022-08-18T03:45:32.092Z,100262.61
2022-08-18T03:48:05.300Z,100256.04
2022-08-18T03:50:38.073Z,100269.65
2022-08-18T03:53:11.367Z,100272.09
2022-08-18T03:55:44.698Z,100270.06
2022-08-18T03:58:16.693Z,100266.30
2022-08-18T04:00:48.837Z,100258.52
2022-08-18T04:03:20.855Z,100272.73
2022-08-18T04:05:53.605Z,100270.27
2022-08-18T04:08:25.871Z,100275.38
2022-08-18T04:10:57.909Z,100275.42
2022-08-18T04:13:30.140Z,100271.86
2022-08-18T04:16:03.725Z,100269.13
2022-08-18T04:18:36.467Z,100274.21
2022-08-18T04:21:14.864Z,100276.61
2022-08-18T04:23:46.959Z,100282.46
2022-08-18T04:26:20.304Z,100278.80
2022-08-18T04:28:52.482Z,100277.71
2022-08-18T04:31:26.536Z,100276.30
2022-08-18T04:34:00.620Z,100277.55
2022-08-18T04:36:35.216Z,100276.08
2022-08-18T04:39:07.202Z,100275.21
2022-08-18T04:41:41.177Z,100273.17
2022-08-18T04:44:17.288Z,100276.31
2022-08-18T04:46:51.979Z,100268.35
2022-08-18T04:49:26.543Z,100260.96
2022-08-18T04:52:32.006Z,100272.91
2022-08-18T04:55:08.119Z,100272.47
2022-08-18T04:57:42.664Z,100269.30
2022-08-18T05:00:15.475Z,100265.71
2022-08-18T05:02:47.561Z,100266.45
2022-08-18T05:05:19.829Z,100266.34
2022-08-18T05:07:52.127Z,100265.63
2022-08-18T05:10:24.435Z,100267.83
2022-08-18T05:12:57.567Z,100269.63
2022-08-18T05:15:38.418Z,100275.13
2022-08-18T05:18:24.465Z,100272.99
2022-08-18T05:21:01.398Z,100278.36
2022-08-18T05:23:36.229Z,100283.72
2022-08-18T05:26:08.814Z,100283.25
2022-08-18T05:28:40.944Z,100284.73
2022-08-18T05:31:14.662Z,100285.61
2022-08-18T05:33:47.921Z,100279.54
2022-08-18T05:36:38.035Z,100279.66
2022-08-18T05:39:16.954Z,100277.19
2022-08-18T05:41:53.209Z,100277.18
2022-08-18T05:44:29.854Z,100276.69
2022-08-18T05:47:06.666Z,100282.45
2022-08-18T05:49:39.789Z,100284.34
2022-08-18T05:53:56.290Z,100279.09
2022-08-18T05:56:48.286Z,100280.31
2022-08-18T05:59:26.477Z,100277.19
2022-08-18T06:02:05.614Z,100277.84
2022-08-18T06:04:45.388Z,100285.05
2022-08-18T06:07:25.216Z,100284.81
2022-08-18T06:09:58.051Z,100283.03
2022-08-18T06:12:37.636Z,100265.84
2022-08-18T06:15:16.253Z,100278.30
2022-08-18T06:18:17.584Z,100286.45
2022-08-18T06:21:18.541Z,100283.66
2022-08-18T06:23:57.867Z,100293.30
2022-08-18T06:26:41.370Z,100288.64
2022-08-18T06:29:25.176Z,100293.52
2022-08-18T06:32:07.565Z,100290.09
2022-08-18T06:34:57.542Z,100298.44
2022-08-18T06:37:35.376Z,100295.19
2022-08-18T06:40:09.572Z,100295.66
2022-08-18T06:42:41.884Z,100286.13
2022-08-18T06:45:18.411Z,100294.88
2022-08-18T06:47:58.450Z,100299.12
2022-08-18T06:50:35.326Z,100296.56
2022-08-18T06:53:19.066Z,100301.42
2022-08-18T06:55:59.791Z,100288.65
2022-08-18T06:58:33.063Z,100297.77
2022-08-18T07:01:09.095Z,100300.25
2022-08-18T07:03:50.472Z,100298.70
2022-08-18T07:06:32.670Z,100283.85
2022-08-18T07:09:29.905Z,100298.34
2022-08-18T07:12:09.372Z,100298.77
2022-08-18T07:14:47.719Z,100297.78
2022-08-18T07:17:42.134Z,100300.23
2022-08-18T07:20:26.570Z,100301.86
2022-08-18T07:23:02.113Z,100302.95
2022-08-18T07:25:44.311Z,100310.32
2022-08-18T07:28:31.631Z,100309.09
2022-08-18T07:31:20.554Z,100304.98
2022-08-18T07:33:57.684Z,100305.16
2022-08-18T07:36:34.604Z,100306.99
2022-08-18T07:39:12.857Z,100308.26
2022-08-18T07:41:53.789Z,100310.39
2022-08-18T07:44:41.800Z,100308.00
2022-08-18T07:47:19.654Z,100310.69
2022-08-18T07:50:17.051Z,100316.61
2022-08-18T07:53:04.175Z,100312.44
2022-08-18T07:55:45.255Z,100310.55
2022-08-18T07:58:39.000Z,100313.27
2022-08-18T08:01:19.962Z,100310.88
2022-08-18T08:04:00.553Z,100310.55
2022-08-18T08:06:40.294Z,100306.29
2022-08-18T08:09:22.648Z,100310.77
2022-08-18T08:12:01.340Z,100308.60
2022-08-18T08:14:42.392Z,100310.49
2022-08-18T08:17:25.986Z,100307.94
2022-08-18T08:20:11.012Z,100316.05
2022-08-18T08:22:48.105Z,100316.41
2022-08-18T08:28:27.642Z,100310.06
2022-08-18T08:31:35.425Z,100323.92
2022-08-18T08:34:13.350Z,100326.11
2022-08-18T08:36:48.819Z,100326.48
2022-08-18T08:39:26.235Z,100324.02
2022-08-18T08:42:30.176Z,100328.65
2022-08-18T08:45:01.055Z,100329.87
2022-08-18T08:47:38.224Z,100330.55
2022-08-18T08:50:14.573Z,100329.52
2022-08-18T08:52:56.658Z,100322.01
2022-08-18T08:55:33.739Z,100333.08
2022-08-18T08:58:18.543Z,100331.71
2022-08-18T09:00:52.582Z,100319.35
2022-08-18T09:03:41.689Z,100336.20
2022-08-18T09:06:31.503Z,100332.99
2022-08-18T09:09:24.247Z,100334.05
2022-08-18T09:12:28.493Z,100333.10
2022-08-18T09:15:34.179Z,100327.73
2022-08-18T09:18:14.475Z,100325.92
2022-08-18T09:21:07.807Z,100327.58
2022-08-18T09:23:44.792Z,100326.96
2022-08-18T09:26:41.038Z,100327.59
2022-08-18T09:29:28.685Z,100310.14
2022-08-18T09:32:35.706Z,100316.86
2022-08-18T09:38:36.094Z,100312.35
2022-08-18T09:41:31.460Z,100311.54
2022-08-18T09:44:21.208Z,100319.42
2022-08-18T09:47:03.015Z,100313.29
2022-08-18T09:59:02.729Z,100299.58
2022-08-18T10:01:43.248Z,100302.42
2022-08-18T10:04:34.065Z,100306.71
2022-08-18T10:10:59.951Z,100299.89
2022-08-18T10:13:29.686Z,100295.00
2022-08-18T10:16:14.413Z,100295.13
2022-08-18T10:19:08.113Z,100290.08
2022-08-18T10:22:13.179Z,100284.40
2022-08-18T10:24:57.315Z,100282.21
2022-08-18T10:27:50.643Z,100279.84
2022-08-18T10:30:56.614Z,100281.19
2022-08-18T10:34:24.653Z,100279.58
2022-08-18T10:36:59.946Z,100280.73
2022-08-18T10:39:50.060Z,100283.14
2022-08-18T10:42:31.195Z,100278.11
2022-08-18T10:45:12.066Z,100269.21
2022-08-18T10:47:45.112Z,100262.80
2022-08-18T10:50:24.413Z,100253.65
2022-08-18T10:56:12.817Z,100250.01
2022-08-18T10:58:59.787Z,100246.77
2022-08-18T11:01:47.304Z,100241.27
2022-08-18T11:04:34.738Z,100242.73
2022-08-18T11:07:14.696Z,100233.56
2022-08-18T11:13:08.749Z,100227.55
2022-08-18T11:15:57.326Z,100220.16
2022-08-18T11:21:42.686Z,100214.48
2022-08-18T11:24:21.194Z,100214.27
2022-08-18T11:26:56.201Z,100208.00
2022-08-18T11:29:32.786Z,100209.13
2022-08-18T11:32:11.211Z,100213.13
2022-08-18T11:34:53.061Z,100204.82
2022-08-18T11:37:48.951Z,100196.75
2022-08-18T11:43:39.153Z,100201.40
2022-08-18T11:46:27.885Z,100205.38
2022-08-18T11:49:15.548Z,100203.05
2022-08-18T11:52:03.156Z,100193.16
2022-08-18T11:57:46.756Z,100191.43
2022-08-18T12:00:54.887Z,100183.77
2022-08-18T12:03:37.936Z,100179.52
2022-08-18T12:06:26.856Z,100180.77
2022-08-18T12:09:04.022Z,100184.63
2022-08-18T12:11:41.173Z,100181.42
2022-08-18T12:14:30.252Z,100180.52
2022-08-18T12:17:10.559Z,100181.36
2022-08-18T12:19:43.078Z,100178.45
2022-08-18T12:22:20.395Z,100178.45
2022-08-18T12:24:54.796Z,100177.49
2022-08-18T12:27:32.085Z,100178.63
2022-08-18T12:30:07.049Z,100171.41
2022-08-18T12:32:55.513Z,100163.70
2022-08-18T12:35:28.917Z,100160.59
2022-08-18T12:38:11.326Z,100159.99
2022-08-18T12:40:46.485Z,100161.46
2022-08-18T12:43:18.611Z,100157.58
2022-08-18T12:45:52.793Z,100167.08
2022-08-18T12:48:26.777Z,100163.16
2022-08-18T12:51:00.888Z,100163.94
2022-08-18T12:53:58.517Z,100163.73
2022-08-18T12:56:32.319Z,100163.98
2022-08-18T12:59:07.529Z,100160.61
2022-08-18T13:01:41.378Z,100162.05
2022-08-18T13:04:18.672Z,100158.08
2022-08-18T13:07:00.527Z,100159.45
2022-08-18T13:09:52.613Z,100153.74
2022-08-18T13:12:27.487Z,100151.26
2022-08-18T13:14:59.818Z,100151.71
2022-08-18T13:17:33.768Z,100156.46
2022-08-18T13:20:10.655Z,100157.98
2022-08-18T13:22:45.919Z,100152.71
2022-08-18T13:25:33.203Z,100158.86
2022-08-18T13:28:12.189Z,100163.44
2022-08-18T13:30:46.800Z,100163.29
2022-08-18T13:33:34.716Z,100154.42
2022-08-18T13:36:12.132Z,100152.81
2022-08-18T13:38:44.473Z,100168.79
2022-08-18T13:41:17.101Z,100166.39
2022-08-18T13:43:50.605Z,100174.95
2022-08-18T13:46:31.252Z,100167.16
2022-08-18T13:49:05.325Z,100164.20
2022-08-18T13:51:38.573Z,100152.66
2022-08-18T13:54:30.827Z,100162.21
2022-08-18T13:57:05.415Z,100156.04
2022-08-18T13:59:46.659Z,100151.56
2022-08-18T14:02:19.423Z,100130.17
2022-08-18T14:04:59.224Z,100127.95
2022-08-18T14:07:32.049Z,100130.23
2022-08-18T14:10:10.681Z,100120.70
2022-08-18T14:12:46.048Z,100122.14
2022-08-18T14:15:19.186Z,100115.81
2022-08-18T14:17:57.221Z,100117.63
2022-08-18T14:20:59.017Z,100119.71
2022-08-18T14:24:00.844Z,100128.48
2022-08-18T14:26:51.297Z,100124.70
2022-08-18T14:29:43.016Z,100118.64
2022-08-18T14:32:18.067Z,100115.76
2022-08-18T14:34:59.994Z,100111.67
2022-08-18T14:37:34.007Z,100112.77
2022-08-18T14:40:14.082Z,100108.55
2022-08-18T14:43:02.492Z,100102.90
2022-08-18T14:45:49.163Z,100103.99
2022-08-18T14:48:23.329Z,100102.91
2022-08-18T14:50:55.556Z,100091.88
2022-08-18T14:53:30.173Z,100106.15
2022-08-18T14:56:03.038Z,100105.63
2022-08-18T14:58:35.962Z,100104.42
2022-08-18T15:01:13.367Z,100102.54
2022-08-18T15:03:49.086Z,100095.30
2022-08-18T15:06:23.021Z,100096.31
2022-08-18T15:08:59.363Z,100089.63
2022-08-18T15:11:33.676Z,100083.77
2022-08-18T15:14:06.353Z,100079.39
2022-08-18T15:16:39.902Z,100080.92
2022-08-18T15:20:00.496Z,100082.39
2022-08-18T15:22:22.969Z,100071.70
2022-08-18T15:25:12.603Z,100078.41
2022-08-18T15:27:44.968Z,100078.52
2022-08-18T15:30:19.516Z,100078.48
2022-08-18T15:32:59.658Z,100076.80
2022-08-18T15:35:35.722Z,100074.08
2022-08-18T15:38:12.624Z,100080.46
2022-08-18T15:40:52.962Z,100084.58
2022-08-18T15:43:35.503Z,100084.21
2022-08-18T15:46:22.657Z,100079.77
2022-08-18T15:48:59.777Z,100071.61
2022-08-18T15:51:40.963Z,100073.49
2022-08-18T15:54:14.512Z,100082.17
2022-08-18T15:56:58.458Z,100090.76
2022-08-18T15:59:34.022Z,100097.54
2022-08-18T16:02:19.280Z,100097.38
2022-08-18T16:04:53.374Z,100098.79
2022-08-18T16:07:40.963Z,100098.05
2022-08-18T16:10:20.428Z,100104.08
2022-08-18T16:12:53.117Z,100103.39
2022-08-18T16:15:26.863Z,100102.81
2022-08-18T16:17:59.188Z,100098.16
2022-08-18T16:20:31.310Z,100095.96
2022-08-18T16:23:03.694Z,100098.16
2022-08-18T16:25:38.427Z,100095.39
2022-08-18T16:28:09.355Z,100093.86
2022-08-18T16:30:42.114Z,100088.55
2022-08-18T16:33:14.114Z,100090.37
2022-08-18T16:35:47.804Z,100091.67
2022-08-18T16:38:21.520Z,100087.91
2022-08-18T16:40:53.611Z,100067.87
2022-08-18T16:43:27.268Z,100074.56
2022-08-18T16:45:59.787Z,100060.34
2022-08-18T16:48:33.006Z,100070.25
2022-08-18T16:51:05.976Z,100065.15
2022-08-18T16:53:40.051Z,100066.20
2022-08-18T16:56:18.674Z,100063.48
2022-08-18T16:59:08.930Z,100056.89
2022-08-18T17:01:59.053Z,100055.21
2022-08-18T17:04:34.593Z,100056.98
2022-08-18T17:07:08.173Z,100061.63
2022-08-18T17:09:40.452Z,100056.55
2022-08-18T17:12:12.979Z,100051.73
2022-08-18T17:14:45.027Z,100047.89
2022-08-18T17:17:18.815Z,100045.45
2022-08-18T17:19:52.026Z,100047.34
2022-08-18T17:22:24.937Z,100050.68
2022-08-18T17:25:02.957Z,100048.89
2022-08-18T17:27:37.744Z,100052.37
2022-08-18T17:30:16.007Z,100049.99
2022-08-18T17:32:52.754Z,100049.02
2022-08-18T17:35:29.469Z,100047.41
2022-08-18T17:38:06.932Z,100046.60
2022-08-18T17:40:45.050Z,100050.73
2022-08-18T17:43:19.411Z,100050.52
2022-08-18T17:45:57.228Z,100050.95
2022-08-18T17:48:33.639Z,100054.14
2022-08-18T17:51:44.811Z,100066.70
2022-08-18T17:54:37.104Z,100069.92
2022-08-18T17:57:14.627Z,100071.59
2022-08-18T17:59:58.383Z,100067.95
2022-08-18T18:02:35.125Z,100068.59
2022-08-18T18:05:11.180Z,100070.05
2022-08-18T18:07:58.700Z,100069.98
2022-08-18T18:11:02.251Z,100077.56
2022-08-18T18:13:35.658Z,100075.86
2022-08-18T18:16:29.124Z,100079.55
2022-08-18T18:19:06.087Z,100080.13
2022-08-18T18:21:57.592Z,100084.16
2022-08-18T18:24:34.908Z,100088.64
2022-08-18T18:27:27.139Z,100090.59
2022-08-18T18:30:03.173Z,100098.89
2022-08-18T18:32:38.958Z,100106.39
2022-08-18T18:35:18.026Z,100105.83
2022-08-18T18:37:54.916Z,100113.25
2022-08-18T18:40:31.744Z,100108.89
2022-08-18T18:43:23.244Z,100116.77
2022-08-18T18:46:23.598Z,100116.45
2022-08-18T18:49:14.683Z,100135.07
2022-08-18T18:51:57.860Z,100140.56
2022-08-18T18:54:49.920Z,100144.20
2022-08-18T18:57:32.114Z,100148.98
2022-08-18T19:00:18.319Z,100146.16
2022-08-18T19:03:03.974Z,100141.51
2022-08-18T19:05:39.915Z,100137.57
2022-08-18T19:08:26.526Z,100143.86
2022-08-18T19:11:03.296Z,100147.41
2022-08-18T19:13:42.379Z,100144.94
2022-08-18T19:16:24.309Z,100148.71
2022-08-18T19:19:35.607Z,100149.67
2022-08-18T19:22:06.434Z,100153.03
2022-08-18T19:24:46.057Z,100135.73
2022-08-18T19:27:26.897Z,100148.09
2022-08-18T19:30:08.880Z,100147.70
2022-08-18T19:32:45.009Z,100153.56
2022-08-18T19:35:20.880Z,100144.31
2022-08-18T19:38:04.809Z,100137.69
2022-08-18T19:40:46.955Z,100134.04
2022-08-18T19:43:27.697Z,100127.45
2022-08-18T19:46:10.575Z,100134.14
2022-08-18T19:48:52.905Z,100129.29
2022-08-18T19:51:34.332Z,100123.45
2022-08-18T19:54:34.803Z,100124.23
2022-08-18T19:57:23.535Z,100121.89
2022-08-18T20:00:25.839Z,100117.89
2022-08-18T20:03:45.931Z,100105.46
2022-08-18T20:06:45.131Z,100100.60
2022-08-18T20:09:29.416Z,100096.02
2022-08-18T20:15:17.182Z,100085.77
2022-08-18T20:18:22.319Z,100090.23
2022-08-18T20:21:39.855Z,100088.85
2022-08-18T20:24:32.752Z,100083.67
2022-08-18T20:27:35.311Z,100084.89
2022-08-18T20:30:28.510Z,100089.47
2022-08-18T20:33:19.126Z,100080.41
2022-08-18T20:36:10.757Z,100082.84
2022-08-18T20:38:45.716Z,100085.43
2022-08-18T20:41:52.017Z,100076.41
2022-08-18T20:44:50.751Z,100076.04
2022-08-18T20:47:42.994Z,100076.26
2022-08-18T20:50:44.643Z,100074.84
2022-08-18T20:53:49.935Z,100071.59
2022-08-18T20:56:32.584Z,100059.34
2022-08-18T20:59:23.740Z,100055.14
2022-08-18T21:02:05.018Z,100047.27
2022-08-18T21:04:45.731Z,100039.33
2022-08-18T21:07:37.194Z,100027.27
2022-08-18T21:10:19.453Z,100019.31
2022-08-18T21:12:54.951Z,100020.63
2022-08-18T21:15:31.404Z,100022.21
2022-08-18T21:18:06.145Z,100020.63
2022-08-18T21:20:38.313Z,100028.03
2022-08-18T21:23:12.658Z,100029.73
2022-08-18T21:25:56.950Z,100033.34
2022-08-18T21:28:34.990Z,100034.21
2022-08-18T21:31:41.677Z,100041.98
2022-08-18T21:34:05.826Z,100048.75
2022-08-18T21:36:40.295Z,100053.90
2022-08-18T21:39:18.267Z,100055.41
2022-08-18T21:41:53.285Z,100060.63
2022-08-18T21:44:41.748Z,100061.67
2022-08-18T21:47:26.018Z,100062.79
2022-08-18T21:50:10.757Z,100064.85
2022-08-18T21:52:53.205Z,100065.92
2022-08-18T21:55:31.856Z,100069.27
2022-08-18T21:58:09.100Z,100078.59
2022-08-18T22:00:43.984Z,100062.88
2022-08-18T22:03:18.638Z,100078.08
2022-08-18T22:06:00.052Z,100079.34
2022-08-18T22:08:46.556Z,100078.79
2022-08-18T22:12:00.988Z,100077.26
2022-08-18T22:14:54.994Z,100084.09
2022-08-18T22:17:35.085Z,100082.61
2022-08-18T22:20:35.334Z,100083.35
2022-08-18T22:23:35.802Z,100077.13
2022-08-18T22:26:15.189Z,100073.86
2022-08-18T22:28:55.291Z,100078.25
2022-08-18T22:31:29.829Z,100074.48
2022-08-18T22:34:07.392Z,100080.59
2022-08-18T22:36:42.707Z,100080.11
2022-08-18T22:39:19.869Z,100077.59
2022-08-18T22:41:55.054Z,100074.11
2022-08-18T22:44:27.539Z,100076.49
2022-08-18T22:47:00.342Z,100070.05
2022-08-18T22:49:35.971Z,100069.48
2022-08-18T22:52:14.059Z,100073.03
2022-08-18T22:54:46.271Z,100075.08
2022-08-18T22:57:23.616Z,100068.20
2022-08-18T22:59:56.340Z,100056.32
2022-08-18T23:02:30.616Z,100065.05
2022-08-18T23:05:03.455Z,100068.34
2022-08-18T23:07:35.800Z,100070.36
2022-08-18T23:10:13.531Z,100074.42
2022-08-18T23:12:47.590Z,100076.30
2022-08-18T23:15:20.640Z,100074.35
2022-08-18T23:17:52.857Z,100066.05
2022-08-18T23:20:26.655Z,100058.71
2022-08-18T23:22:59.007Z,100050.79
2022-08-18T23:25:32.631Z,100054.07
2022-08-18T23:28:09.627Z,100053.42
2022-08-18T23:30:44.644Z,100034.71
2022-08-18T23:33:17.644Z,100051.12
2022-08-18T23:35:50.537Z,100050.27
2022-08-18T23:38:23.025Z,100051.54
2022-08-18T23:41:05.873Z,100033.81
2022-08-18T23:43:38.423Z,100047.27
2022-08-18T23:46:18.644Z,100047.34
2022-08-18T23:48:51.709Z,100053.41
2022-08-18T23:51:29.958Z,100049.09
2022-08-18T23:54:03.992Z,100046.59
2022-08-18T23:56:37.847Z,100045.76
2022-08-18T23:59:11.384Z,100042.77
